Time;durP1;ratioP1;P1;durP2;ratioP2;P2;SDS_P1;SDS_P2;PMS_P1;PMS_P2;Temp;Humidity;BMP_temperature;BMP_pressure;BME280_temperature;BME280_humidity;BME280_pressure;Samples;Min_cycle;Max_cycle;Signal;HPM_P1;HPM_P2
2022/10/02 00:00:35;;;;;;;29.65;4.28;;;;;;;;;;5032368;28;20051;-76
2022/10/02 00:03:11;;;;;;;29.48;3.30;;;;;;;;;;5032414;28;20037;-77
2022/10/02 00:05:59;;;;;;;39.22;4.80;;;;;;;;;;5032387;28;20040;-77
2022/10/02 00:08:31;;;;;;;29.33;4.25;;;;;;;;;;5031321;28;20636;-76
2022/10/02 00:11:02;;;;;;;32.13;4.63;;;;;;;;;;5032523;28;20017;-75
2022/10/02 00:13:32;;;;;;;31.48;4.05;;;;;;;;;;5031453;28;20029;-77
2022/10/02 00:16:00;;;;;;;23.50;4.15;;;;;;;;;;5032110;28;20021;-76
2022/10/02 00:18:29;;;;;;;37.30;4.80;;;;;;;;;;5032317;28;20025;-75
2022/10/02 00:21:01;;;;;;;29.33;3.85;;;;;;;;;;5055536;23;20037;-77
2022/10/02 00:23:37;;;;;;;26.92;4.45;;;;;;;;;;5033861;28;20449;-78
2022/10/02 00:26:13;;;;;;;26.40;3.53;;;;;;;;;;5034054;28;20037;-77
2022/10/02 00:29:05;;;;;;;25.92;4.18;;;;;;;;;;5035378;28;20089;-77
2022/10/02 00:32:01;;;;;;;27.85;4.22;;;;;;;;;;5031030;28;20030;-79
2022/10/02 00:34:45;;;;;;;26.67;3.78;;;;;;;;;;4968344;28;20106;-79
2022/10/02 00:37:22;;;;;;;22.02;3.50;;;;;;;;;;5037549;28;20021;-79
2022/10/02 00:39:59;;;;;;;27.23;3.55;;;;;;;;;;5020973;28;20037;-79
2022/10/02 00:42:43;;;;;;;31.13;4.03;;;;;;;;;;5037715;28;20029;-79
2022/10/02 00:45:28;;;;;;;32.92;3.83;;;;;;;;;;5021720;28;20084;-77
2022/10/02 00:47:57;;;;;;;23.42;4.15;;;;;;;;;;5012501;28;20030;-77
2022/10/02 00:50:26;;;;;;;24.15;4.80;;;;;;;;;;5012774;28;20495;-77
2022/10/02 00:52:58;;;;;;;23.20;3.17;;;;;;;;;;5012662;28;20026;-78
2022/10/02 00:55:34;;;;;;;25.02;4.07;;;;;;;;;;5012778;28;20479;-76
2022/10/02 00:58:20;;;;;;;23.83;3.78;;;;;;;;;;5012758;28;20482;-77
2022/10/02 01:00:59;;;;;;;28.25;3.70;;;;;;;;;;4983022;28;20120;-78
2022/10/02 01:03:37;;;;;;;22.83;3.33;;;;;;;;;;5013594;28;20025;-78
2022/10/02 01:06:04;;;;;;;25.45;4.25;;;;;;;;;;5012848;28;20020;-78
2022/10/02 01:08:29;;;;;;;24.38;3.45;;;;;;;;;;5012299;28;20026;-77
2022/10/02 01:10:56;;;;;;;18.80;3.17;;;;;;;;;;5013049;28;20022;-77
2022/10/02 01:13:22;;;;;;;23.15;3.67;;;;;;;;;;5013441;28;20097;-76
2022/10/02 01:15:51;;;;;;;21.77;3.25;;;;;;;;;;5013037;28;20114;-77
2022/10/02 01:18:18;;;;;;;24.48;3.60;;;;;;;;;;5013609;28;20030;-77
2022/10/02 01:20:48;;;;;;;25.15;3.75;;;;;;;;;;5013035;28;20105;-78
2022/10/02 01:23:32;;;;;;;28.48;3.90;;;;;;;;;;5013107;28;20058;-76
2022/10/02 01:25:59;;;;;;;35.90;4.00;;;;;;;;;;5012842;28;20053;-77
2022/10/02 01:28:25;;;;;;;31.65;4.72;;;;;;;;;;5012967;28;20029;-77
2022/10/02 01:30:53;;;;;;;21.67;3.90;;;;;;;;;;4995565;28;20506;-79
2022/10/02 01:33:19;;;;;;;22.30;3.78;;;;;;;;;;4995296;28;20025;-77
2022/10/02 01:35:45;;;;;;;24.75;3.80;;;;;;;;;;5013076;28;20066;-77
2022/10/02 01:38:13;;;;;;;22.73;3.53;;;;;;;;;;5012851;28;20030;-78
2022/10/02 01:40:39;;;;;;;16.63;3.20;;;;;;;;;;5012710;28;20430;-77
2022/10/02 01:43:08;;;;;;;21.73;3.00;;;;;;;;;;5012224;28;20026;-77
2022/10/02 01:45:43;;;;;;;24.42;3.40;;;;;;;;;;5012411;28;20449;-78
2022/10/02 01:48:27;;;;;;;17.88;3.80;;;;;;;;;;5012677;28;20018;-77
2022/10/02 01:51:09;;;;;;;24.63;3.78;;;;;;;;;;5012934;28;20041;-77
2022/10/02 01:53:57;;;;;;;26.42;3.60;;;;;;;;;;5012485;28;20077;-77
2022/10/02 01:56:29;;;;;;;15.35;3.72;;;;;;;;;;5011582;28;20030;-77
2022/10/02 01:59:17;;;;;;;21.77;3.67;;;;;;;;;;5011843;28;20426;-77
2022/10/02 02:01:54;;;;;;;25.85;3.42;;;;;;;;;;5011872;28;20105;-77
2022/10/02 02:04:25;;;;;;;18.02;3.10;;;;;;;;;;5011776;28;20065;-77
2022/10/02 02:07:04;;;;;;;23.50;2.85;;;;;;;;;;4993946;28;20033;-77
2022/10/02 02:09:45;;;;;;;27.13;3.33;;;;;;;;;;5011774;28;20037;-76
2022/10/02 02:12:14;;;;;;;15.90;2.85;;;;;;;;;;5015198;28;20038;-77
2022/10/02 02:14:46;;;;;;;19.88;3.17;;;;;;;;;;5015431;28;20470;-76
2022/10/02 02:17:15;;;;;;;28.30;4.00;;;;;;;;;;5015217;28;20026;-78
2022/10/02 02:19:47;;;;;;;22.77;3.13;;;;;;;;;;4997703;28;20105;-75
2022/10/02 02:22:23;;;;;;;24.60;3.65;;;;;;;;;;5015090;28;20499;-76
2022/10/02 02:25:01;;;;;;;27.80;4.35;;;;;;;;;;5015330;28;20080;-77
2022/10/02 02:27:29;;;;;;;21.58;3.30;;;;;;;;;;5014882;28;20105;-77
2022/10/02 02:29:59;;;;;;;17.73;3.00;;;;;;;;;;5015268;28;20022;-78
2022/10/02 02:32:29;;;;;;;19.77;3.45;;;;;;;;;;5015083;28;20021;-77
2022/10/02 02:34:59;;;;;;;21.88;3.40;;;;;;;;;;5014873;28;20026;-76
2022/10/02 02:37:26;;;;;;;19.27;3.33;;;;;;;;;;4997302;28;20044;-76
2022/10/02 02:39:56;;;;;;;23.80;3.55;;;;;;;;;;5014878;28;20068;-77
2022/10/02 02:42:23;;;;;;;27.92;3.17;;;;;;;;;;5014855;28;20088;-77
2022/10/02 02:44:53;;;;;;;18.50;2.92;;;;;;;;;;5014966;28;20062;-77
2022/10/02 02:47:22;;;;;;;20.05;2.78;;;;;;;;;;5015074;28;20165;-76
2022/10/02 02:49:52;;;;;;;18.75;3.67;;;;;;;;;;5013837;28;20030;-78
2022/10/02 02:52:20;;;;;;;28.55;3.47;;;;;;;;;;5016213;28;20035;-77
2022/10/02 02:54:50;;;;;;;23.77;3.65;;;;;;;;;;5016110;28;20037;-78
2022/10/02 02:57:18;;;;;;;27.75;3.42;;;;;;;;;;5015605;28;20391;-77
2022/10/02 02:59:46;;;;;;;18.65;2.90;;;;;;;;;;5015434;28;20156;-78
2022/10/02 03:02:11;;;;;;;20.70;3.88;;;;;;;;;;4998051;28;20495;-78
2022/10/02 03:04:37;;;;;;;18.30;3.08;;;;;;;;;;5016451;28;20026;-78
2022/10/02 03:07:04;;;;;;;14.80;2.60;;;;;;;;;;5017170;28;20022;-77
2022/10/02 03:09:31;;;;;;;18.75;2.83;;;;;;;;;;4999078;28;20026;-77
2022/10/02 03:12:15;;;;;;;20.52;3.20;;;;;;;;;;5016569;28;20053;-77
2022/10/02 03:14:50;;;;;;;19.20;3.13;;;;;;;;;;5015884;28;20519;-77
2022/10/02 03:17:19;;;;;;;19.25;3.08;;;;;;;;;;5015711;28;20029;-77
2022/10/02 03:19:57;;;;;;;14.60;3.22;;;;;;;;;;5015709;28;20084;-77
2022/10/02 03:22:35;;;;;;;22.30;3.17;;;;;;;;;;5014563;28;20095;-78
2022/10/02 03:25:04;;;;;;;18.55;2.88;;;;;;;;;;5014306;28;20530;-77
2022/10/02 03:27:40;;;;;;;21.30;2.97;;;;;;;;;;5014611;28;20037;-75
2022/10/02 03:30:10;;;;;;;19.83;2.88;;;;;;;;;;5015374;28;20026;-77
2022/10/02 03:32:37;;;;;;;18.00;2.90;;;;;;;;;;5014294;28;20032;-78
2022/10/02 03:35:04;;;;;;;15.07;2.10;;;;;;;;;;4996281;28;20032;-79
2022/10/02 03:37:30;;;;;;;19.02;2.83;;;;;;;;;;5014506;28;20476;-78
2022/10/02 03:40:04;;;;;;;19.08;2.60;;;;;;;;;;5013123;28;20058;-77
2022/10/02 03:42:31;;;;;;;20.23;3.17;;;;;;;;;;5013162;28;20018;-76
2022/10/02 03:44:57;;;;;;;23.70;2.83;;;;;;;;;;5013401;28;20030;-78
2022/10/02 03:47:23;;;;;;;14.38;2.60;;;;;;;;;;5012626;28;20084;-76
2022/10/02 03:49:49;;;;;;;20.08;3.10;;;;;;;;;;5013096;28;20022;-77
2022/10/02 03:52:19;;;;;;;19.25;2.88;;;;;;;;;;5012780;28;20049;-77
2022/10/02 03:54:45;;;;;;;17.55;2.85;;;;;;;;;;5012883;28;20092;-76
2022/10/02 03:57:19;;;;;;;14.43;2.50;;;;;;;;;;5013248;28;20022;-77
2022/10/02 04:00:20;;;;;;;23.13;3.15;;;;;;;;;;5015086;28;20025;-74
2022/10/02 04:02:53;;;;;;;19.92;3.35;;;;;;;;;;4963388;29;20037;-74
2022/10/02 04:05:25;;;;;;;13.43;3.10;;;;;;;;;;5020727;28;20046;-77
2022/10/02 04:07:55;;;;;;;18.23;2.72;;;;;;;;;;5013644;28;20030;-79
2022/10/02 04:10:26;;;;;;;19.98;3.67;;;;;;;;;;5007048;28;20030;-77
2022/10/02 04:12:55;;;;;;;14.77;3.00;;;;;;;;;;5020546;28;20033;-78
2022/10/02 04:15:25;;;;;;;15.93;2.67;;;;;;;;;;5013036;28;20088;-76
2022/10/02 04:18:04;;;;;;;15.75;4.32;;;;;;;;;;5013557;28;20044;-78
2022/10/02 04:20:44;;;;;;;15.98;2.47;;;;;;;;;;5013646;28;20517;-76
2022/10/02 04:23:42;;;;;;;15.98;2.80;;;;;;;;;;5013838;28;20112;-76
2022/10/02 04:26:21;;;;;;;17.13;3.00;;;;;;;;;;4985954;28;20037;-76
2022/10/02 04:28:50;;;;;;;15.52;3.40;;;;;;;;;;5027002;28;20038;-75
2022/10/02 04:31:16;;;;;;;12.10;2.42;;;;;;;;;;5013373;28;20029;-75
2022/10/02 04:33:43;;;;;;;19.63;2.58;;;;;;;;;;5013351;28;20601;-76
2022/10/02 04:36:29;;;;;;;20.85;2.83;;;;;;;;;;5012997;28;20101;-75
2022/10/02 04:39:04;;;;;;;12.77;2.22;;;;;;;;;;5013236;28;20391;-77
2022/10/02 04:41:52;;;;;;;11.00;2.63;;;;;;;;;;5012988;28;20026;-77
2022/10/02 04:44:33;;;;;;;20.27;2.90;;;;;;;;;;5013023;28;20658;-76
2022/10/02 04:47:02;;;;;;;13.43;3.00;;;;;;;;;;5012647;28;20060;-77
2022/10/02 04:49:31;;;;;;;18.75;2.63;;;;;;;;;;5013035;28;20560;-74
2022/10/02 04:52:16;;;;;;;21.90;3.45;;;;;;;;;;5012766;28;20442;-76
2022/10/02 04:54:54;;;;;;;17.53;3.13;;;;;;;;;;4995407;28;20022;-76
2022/10/02 04:57:20;;;;;;;13.70;2.78;;;;;;;;;;5012760;28;20260;-77
2022/10/02 04:59:46;;;;;;;22.05;3.38;;;;;;;;;;5012913;28;20494;-76
2022/10/02 05:02:27;;;;;;;17.50;3.22;;;;;;;;;;5014156;28;20036;-77
2022/10/02 05:05:05;;;;;;;13.85;3.10;;;;;;;;;;5015072;28;20030;-75
2022/10/02 05:07:37;;;;;;;19.08;3.22;;;;;;;;;;5015750;28;20501;-76
2022/10/02 05:10:03;;;;;;;19.73;3.63;;;;;;;;;;5017100;28;20424;-75
2022/10/02 05:12:29;;;;;;;26.90;4.15;;;;;;;;;;5016019;28;20040;-75
2022/10/02 05:15:21;;;;;;;24.40;4.07;;;;;;;;;;4995622;28;20058;-76
2022/10/02 05:17:53;;;;;;;24.40;3.63;;;;;;;;;;5009322;28;20281;-76
2022/10/02 05:20:38;;;;;;;20.15;3.38;;;;;;;;;;5012150;28;20479;-75
2022/10/02 05:23:14;;;;;;;20.75;3.95;;;;;;;;;;5011626;28;20037;-76
2022/10/02 05:25:55;;;;;;;15.85;3.25;;;;;;;;;;5012041;28;20037;-77
2022/10/02 05:28:24;;;;;;;21.70;3.38;;;;;;;;;;5012080;28;20084;-75
2022/10/02 05:31:09;;;;;;;27.42;4.07;;;;;;;;;;5011844;28;20487;-75
2022/10/02 05:33:44;;;;;;;18.05;3.55;;;;;;;;;;5012175;28;20106;-77
2022/10/02 05:36:09;;;;;;;29.33;4.22;;;;;;;;;;5012858;28;20070;-76
2022/10/02 05:38:38;;;;;;;25.17;3.92;;;;;;;;;;5011203;28;20029;-76
2022/10/02 05:41:07;;;;;;;20.55;4.32;;;;;;;;;;5010930;28;20022;-77
2022/10/02 05:43:48;;;;;;;38.67;9.32;;;;;;;;;;5011439;28;20509;-76
2022/10/02 05:46:22;;;;;;;26.90;4.07;;;;;;;;;;5014664;28;20030;-76
2022/10/02 05:49:02;;;;;;;18.00;3.85;;;;;;;;;;5016291;28;20037;-76
2022/10/02 05:51:46;;;;;;;22.67;3.92;;;;;;;;;;5016982;28;20033;-76
2022/10/02 05:54:31;;;;;;;19.20;3.65;;;;;;;;;;5015791;28;20021;-76
2022/10/02 05:57:06;;;;;;;21.90;3.88;;;;;;;;;;5016020;28;20490;-76
2022/10/02 05:59:45;;;;;;;25.08;4.18;;;;;;;;;;5015681;28;20105;-76
2022/10/02 06:02:18;;;;;;;27.30;4.00;;;;;;;;;;5015544;28;20037;-76
2022/10/02 06:04:48;;;;;;;28.15;4.65;;;;;;;;;;5015786;28;20025;-75
2022/10/02 06:07:16;;;;;;;28.98;3.95;;;;;;;;;;5015497;28;20030;-75
2022/10/02 06:09:47;;;;;;;26.38;4.20;;;;;;;;;;5015783;28;20483;-75
2022/10/02 06:12:29;;;;;;;27.77;4.18;;;;;;;;;;5016076;28;20034;-76
2022/10/02 06:15:15;;;;;;;25.45;3.70;;;;;;;;;;5015490;28;20022;-76
2022/10/02 06:17:51;;;;;;;34.65;7.57;;;;;;;;;;5016750;28;20123;-78
2022/10/02 06:20:24;;;;;;;26.27;5.22;;;;;;;;;;5016912;28;20084;-78
2022/10/02 06:22:54;;;;;;;31.20;6.05;;;;;;;;;;4999809;28;20065;-76
2022/10/02 06:25:32;;;;;;;25.55;3.58;;;;;;;;;;5019488;28;20360;-77
2022/10/02 06:28:12;;;;;;;21.55;3.47;;;;;;;;;;5018077;28;20486;-77
2022/10/02 06:30:41;;;;;;;26.45;4.22;;;;;;;;;;4999784;28;20042;-77
2022/10/02 06:33:16;;;;;;;18.35;3.67;;;;;;;;;;5017765;28;20026;-77
2022/10/02 06:35:57;;;;;;;14.48;3.10;;;;;;;;;;5017507;28;20040;-77
2022/10/02 06:38:32;;;;;;;23.88;3.55;;;;;;;;;;5020464;28;20025;-77
2022/10/02 06:41:10;;;;;;;13.70;2.97;;;;;;;;;;5017811;28;20483;-76
2022/10/02 06:43:42;;;;;;;14.80;2.80;;;;;;;;;;5016564;28;20471;-76
2022/10/02 06:46:27;;;;;;;20.13;2.80;;;;;;;;;;5016182;28;20496;-76
2022/10/02 06:49:20;;;;;;;14.95;2.78;;;;;;;;;;5015661;28;20033;-76
2022/10/02 06:52:06;;;;;;;15.02;2.35;;;;;;;;;;5015701;28;20109;-75
2022/10/02 06:54:32;;;;;;;22.80;2.50;;;;;;;;;;5014779;28;20041;-74
2022/10/02 06:57:16;;;;;;;13.88;2.70;;;;;;;;;;5014451;28;20026;-75
2022/10/02 06:59:51;;;;;;;11.73;2.33;;;;;;;;;;5014804;28;20061;-74
2022/10/02 07:02:24;;;;;;;12.13;2.47;;;;;;;;;;5015128;28;20537;-75
2022/10/02 07:05:09;;;;;;;11.98;2.17;;;;;;;;;;5015084;28;20037;-74
2022/10/02 07:07:35;;;;;;;;;;;;;;;;;;5015253;28;20026;-74
2022/10/02 07:10:16;;;;;;;14.82;2.53;;;;;;;;;;5014869;28;20231;-75
2022/10/02 07:13:02;;;;;;;14.73;2.88;;;;;;;;;;5014696;28;20543;-74
2022/10/02 07:15:37;;;;;;;12.32;2.55;;;;;;;;;;5012123;28;20521;-74
2022/10/02 07:18:22;;;;;;;14.85;2.92;;;;;;;;;;5014990;28;20030;-74
2022/10/02 07:21:06;;;;;;;10.63;2.63;;;;;;;;;;5014204;28;20034;-74
2022/10/02 07:23:42;;;;;;;9.57;2.55;;;;;;;;;;5018207;28;20065;-76
2022/10/02 07:26:14;;;;;;;15.32;2.53;;;;;;;;;;5019642;28;20088;-75
2022/10/02 07:28:44;;;;;;;17.50;2.78;;;;;;;;;;5002498;28;20032;-74
2022/10/02 07:31:20;;;;;;;11.80;2.17;;;;;;;;;;5022289;28;20159;-78
2022/10/02 07:33:50;;;;;;;10.35;1.92;;;;;;;;;;5016386;28;20025;-75
2022/10/02 07:36:35;;;;;;;10.07;2.20;;;;;;;;;;5016269;28;20021;-75
2022/10/02 07:39:01;;;;;;;15.57;2.50;;;;;;;;;;4999179;28;20045;-75
2022/10/02 07:41:36;;;;;;;14.20;2.40;;;;;;;;;;5016728;28;20022;-74
2022/10/02 07:44:02;;;;;;;13.13;2.22;;;;;;;;;;5019807;28;20030;-74
2022/10/02 07:46:39;;;;;;;11.25;1.92;;;;;;;;;;5023487;28;20030;-75
2022/10/02 07:49:23;;;;;;;11.32;2.45;;;;;;;;;;5033797;28;20034;-75
2022/10/02 07:52:05;;;;;;;13.75;2.17;;;;;;;;;;5019769;28;20014;-75
2022/10/02 07:54:34;;;;;;;9.98;2.03;;;;;;;;;;5024406;28;20105;-75
2022/10/02 07:57:18;;;;;;;21.08;3.00;;;;;;;;;;5002429;28;20083;-74
2022/10/02 07:59:46;;;;;;;17.20;2.90;;;;;;;;;;5024255;28;20025;-75
2022/10/02 08:02:30;;;;;;;13.27;2.67;;;;;;;;;;5021693;28;20029;-73
2022/10/02 08:04:58;;;;;;;15.53;2.53;;;;;;;;;;5002103;28;20037;-73
2022/10/02 08:07:25;;;;;;;13.65;2.88;;;;;;;;;;5019581;28;20276;-73
2022/10/02 08:09:52;;;;;;;15.20;2.30;;;;;;;;;;5019444;28;20080;-73
2022/10/02 08:12:30;;;;;;;15.43;2.40;;;;;;;;;;5021411;28;20060;-74
2022/10/02 08:14:58;;;;;;;18.83;3.28;;;;;;;;;;5019052;28;20042;-73
2022/10/02 08:17:32;;;;;;;15.45;2.65;;;;;;;;;;5019719;28;20052;-74
2022/10/02 08:20:01;;;;;;;15.60;2.85;;;;;;;;;;5020493;28;20250;-74
2022/10/02 08:22:34;;;;;;;11.57;2.10;;;;;;;;;;5023462;28;20026;-75
2022/10/02 08:25:04;;;;;;;16.92;3.22;;;;;;;;;;5025544;28;20030;-75
2022/10/02 08:27:33;;;;;;;10.02;2.42;;;;;;;;;;5020785;28;20030;-75
2022/10/02 08:30:03;;;;;;;15.10;3.20;;;;;;;;;;4994922;28;20153;-75
2022/10/02 08:32:31;;;;;;;15.90;3.25;;;;;;;;;;5012461;28;20054;-75
2022/10/02 08:34:59;;;;;;;16.77;3.05;;;;;;;;;;5013025;28;20033;-76
2022/10/02 08:37:48;;;;;;;14.07;3.05;;;;;;;;;;4994870;28;20026;-77
2022/10/02 08:40:21;;;;;;;15.38;3.05;;;;;;;;;;4976513;28;20045;-76
2022/10/02 08:42:50;;;;;;;15.77;2.92;;;;;;;;;;5015694;28;20041;-75
2022/10/02 08:45:35;;;;;;;17.90;4.13;;;;;;;;;;5021581;28;20034;-74
2022/10/02 08:48:09;;;;;;;16.35;3.78;;;;;;;;;;5016735;28;20022;-77
2022/10/02 08:50:59;;;;;;;14.70;2.83;;;;;;;;;;5012712;28;20025;-76
2022/10/02 08:53:39;;;;;;;23.48;2.80;;;;;;;;;;4977584;28;20044;-75
2022/10/02 08:56:09;;;;;;;17.50;4.93;;;;;;;;;;5013798;28;20041;-76
2022/10/02 08:58:54;;;;;;;17.60;5.35;;;;;;;;;;5013677;28;20024;-76
2022/10/02 09:01:31;;;;;;;12.93;2.60;;;;;;;;;;5012066;28;20044;-75
2022/10/02 09:04:16;;;;;;;17.25;2.95;;;;;;;;;;5011951;28;20149;-74
2022/10/02 09:07:07;;;;;;;13.70;2.53;;;;;;;;;;5011293;28;20053;-75
2022/10/02 09:09:36;;;;;;;15.52;3.38;;;;;;;;;;4994170;28;20504;-75
2022/10/02 09:12:05;;;;;;;16.65;2.85;;;;;;;;;;5011270;28;20425;-75
2022/10/02 09:14:41;;;;;;;20.42;3.30;;;;;;;;;;5011721;28;20034;-75
2022/10/02 09:17:13;;;;;;;17.10;2.90;;;;;;;;;;5011859;28;20022;-75
2022/10/02 09:19:41;;;;;;;17.27;3.88;;;;;;;;;;5011639;28;20014;-75
2022/10/02 09:22:26;;;;;;;19.50;4.10;;;;;;;;;;5015707;28;20030;-76
2022/10/02 09:24:54;;;;;;;15.75;2.85;;;;;;;;;;5015747;28;20479;-76
2022/10/02 09:27:20;;;;;;;17.95;3.15;;;;;;;;;;5012083;28;20022;-75
2022/10/02 09:29:49;;;;;;;22.88;3.53;;;;;;;;;;5011942;28;20033;-76
2022/10/02 09:32:34;;;;;;;16.58;2.65;;;;;;;;;;5011454;28;20385;-76
2022/10/02 09:35:29;;;;;;;15.93;2.75;;;;;;;;;;5011694;28;20037;-79
2022/10/02 09:37:59;;;;;;;16.52;3.70;;;;;;;;;;4941414;28;20039;-75
2022/10/02 09:40:34;;;;;;;18.08;3.45;;;;;;;;;;5011619;28;20025;-76
2022/10/02 09:43:38;;;;;;;13.80;3.10;;;;;;;;;;5011079;28;20041;-76
2022/10/02 09:46:29;;;;;;;13.73;2.77;;;;;;;;;;4937179;29;20028;-78
2022/10/02 09:48:58;;;;;;;11.82;2.40;;;;;;;;;;4935371;29;20294;-75
2022/10/02 09:51:35;;;;;;;13.38;2.88;;;;;;;;;;4983990;28;20046;-75
2022/10/02 09:54:20;;;;;;;13.68;2.45;;;;;;;;;;5016564;28;20432;-75
2022/10/02 09:57:05;;;;;;;12.85;2.33;;;;;;;;;;4995676;28;20021;-76
2022/10/02 09:59:43;;;;;;;15.73;2.58;;;;;;;;;;4997700;28;20029;-76
2022/10/02 10:02:27;;;;;;;14.32;2.47;;;;;;;;;;5010814;28;20125;-77
2022/10/02 10:05:12;;;;;;;8.50;2.33;;;;;;;;;;5012547;28;20058;-77
2022/10/02 10:08:03;;;;;;;13.02;2.13;;;;;;;;;;4993145;28;20044;-76
2022/10/02 10:10:40;;;;;;;11.27;2.10;;;;;;;;;;5011301;28;20072;-77
2022/10/02 10:13:25;;;;;;;9.55;2.35;;;;;;;;;;4994039;28;20487;-76
2022/10/02 10:15:51;;;;;;;;;;;;;;;;;;5011502;28;20490;-76
2022/10/02 10:18:38;;;;;;;10.88;2.30;;;;;;;;;;5011423;28;19905;-75
2022/10/02 10:21:22;;;;;;;9.23;1.65;;;;;;;;;;5015090;28;20018;-76
2022/10/02 10:23:54;;;;;;;8.25;1.92;;;;;;;;;;5011974;28;20030;-77
2022/10/02 10:26:33;;;;;;;6.70;2.00;;;;;;;;;;5010691;28;20021;-74
2022/10/02 10:29:08;;;;;;;10.13;2.63;;;;;;;;;;5010962;28;20545;-75
2022/10/02 10:31:34;;;;;;;9.95;2.80;;;;;;;;;;5013238;28;20112;-75
2022/10/02 10:34:17;;;;;;;9.63;2.20;;;;;;;;;;5017133;28;20116;-75
2022/10/02 10:39:46;;;;;;;14.25;2.92;;;;;;;;;;5013736;28;20029;-76
2022/10/02 10:42:34;;;;;;;16.55;2.83;;;;;;;;;;5014442;28;20088;-75
2022/10/02 10:45:16;;;;;;;12.38;2.97;;;;;;;;;;5015417;28;20022;-75
2022/10/02 10:47:48;;;;;;;20.25;3.67;;;;;;;;;;5016667;28;20434;-76
2022/10/02 10:50:34;;;;;;;13.60;2.90;;;;;;;;;;5015275;28;20464;-75
2022/10/02 10:53:09;;;;;;;14.50;3.20;;;;;;;;;;5018015;28;20069;-76
2022/10/02 10:55:46;;;;;;;17.60;3.65;;;;;;;;;;5000105;28;20041;-77
2022/10/02 10:58:21;;;;;;;13.07;3.20;;;;;;;;;;4998694;28;20026;-76
2022/10/02 11:00:59;;;;;;;16.02;3.28;;;;;;;;;;5018182;28;20361;-77
2022/10/02 11:03:35;;;;;;;15.07;3.35;;;;;;;;;;4999296;28;20026;-76
2022/10/02 11:06:22;;;;;;;13.85;3.08;;;;;;;;;;5017848;28;20028;-75
2022/10/02 11:09:07;;;;;;;13.43;3.00;;;;;;;;;;5018113;28;20419;-75
2022/10/02 11:11:33;;;;;;;;;;;;;;;;;;5003670;28;20211;-75
2022/10/02 11:14:04;;;;;;;15.02;3.33;;;;;;;;;;5014802;28;19941;-76
2022/10/02 11:16:48;;;;;;;18.48;4.00;;;;;;;;;;5020063;28;20046;-75
2022/10/02 11:19:17;;;;;;;19.77;3.65;;;;;;;;;;5030956;28;20046;-80
2022/10/02 11:21:51;;;;;;;17.90;3.92;;;;;;;;;;5030417;28;20038;-77
2022/10/02 11:24:32;;;;;;;21.67;5.38;;;;;;;;;;5019186;28;20038;-76
2022/10/02 11:27:16;;;;;;;25.17;3.92;;;;;;;;;;5038389;28;20030;-75
2022/10/02 11:30:00;;;;;;;18.63;3.40;;;;;;;;;;5004848;28;20041;-75
2022/10/02 11:32:36;;;;;;;24.42;4.13;;;;;;;;;;5014817;28;20034;-78
2022/10/02 11:35:05;;;;;;;28.13;3.90;;;;;;;;;;5013917;28;20364;-76
2022/10/02 11:37:57;;;;;;;22.77;4.07;;;;;;;;;;5013187;28;20029;-76
2022/10/02 11:40:35;;;;;;;19.65;3.70;;;;;;;;;;4990720;28;20088;-76
2022/10/02 11:43:14;;;;;;;24.80;3.80;;;;;;;;;;5013206;28;20065;-76
2022/10/02 11:45:42;;;;;;;23.05;4.32;;;;;;;;;;5013103;28;20026;-76
2022/10/02 11:48:26;;;;;;;22.90;4.30;;;;;;;;;;5013279;28;20514;-76
2022/10/02 11:50:58;;;;;;;29.63;5.00;;;;;;;;;;5012725;28;20501;-76
2022/10/02 11:53:33;;;;;;;23.80;3.92;;;;;;;;;;5012960;28;20030;-76
2022/10/02 11:55:59;;;;;;;;;;;;;;;;;;5013845;28;20026;-77
2022/10/02 11:58:28;;;;;;;29.33;4.03;;;;;;;;;;5013035;28;19913;-77
2022/10/02 12:01:04;;;;;;;24.52;3.33;;;;;;;;;;5013666;28;20026;-76
2022/10/02 12:03:43;;;;;;;17.88;3.50;;;;;;;;;;5012846;28;20026;-76
2022/10/02 12:06:14;;;;;;;27.08;5.10;;;;;;;;;;5012653;28;20052;-76
2022/10/02 12:08:40;;;;;;;23.05;4.60;;;;;;;;;;5015225;28;20067;-77
2022/10/02 12:11:32;;;;;;;27.77;4.82;;;;;;;;;;5014662;28;20041;-76
2022/10/02 12:14:10;;;;;;;20.88;4.03;;;;;;;;;;5013681;28;20036;-78
2022/10/02 12:16:39;;;;;;;19.50;3.90;;;;;;;;;;5014631;28;20022;-76
2022/10/02 12:19:29;;;;;;;16.45;3.60;;;;;;;;;;5012130;28;20026;-76
2022/10/02 12:28:10;;;;;;;15.57;3.33;;;;;;;;;;5013406;28;20048;-74
2022/10/02 12:30:42;;;;;;;21.90;3.73;;;;;;;;;;5013063;28;20022;-74
2022/10/02 12:33:33;;;;;;;18.10;3.78;;;;;;;;;;5012836;28;20390;-73
2022/10/02 12:36:08;;;;;;;18.42;4.00;;;;;;;;;;4997208;28;20030;-73
2022/10/02 12:38:58;;;;;;;20.63;4.05;;;;;;;;;;5012804;28;20022;-72
2022/10/02 12:41:43;;;;;;;18.15;4.30;;;;;;;;;;5012745;28;20414;-73
2022/10/02 12:44:30;;;;;;;18.70;4.05;;;;;;;;;;5012567;28;20030;-73
2022/10/02 12:46:59;;;;;;;18.10;4.28;;;;;;;;;;4982882;28;20435;-73
2022/10/02 12:49:46;;;;;;;28.60;4.70;;;;;;;;;;5013133;28;20036;-73
2022/10/02 12:52:27;;;;;;;25.33;4.13;;;;;;;;;;5016794;28;20036;-73
2022/10/02 12:55:05;;;;;;;28.13;3.90;;;;;;;;;;5011523;28;20022;-74
2022/10/02 12:57:50;;;;;;;17.58;3.80;;;;;;;;;;5012203;28;20029;-74
2022/10/02 13:00:17;;;;;;;22.42;4.35;;;;;;;;;;5014296;28;20289;-77
2022/10/02 13:02:43;;;;;;;21.90;3.75;;;;;;;;;;5015801;28;20446;-74
2022/10/02 13:05:30;;;;;;;19.20;4.65;;;;;;;;;;5015998;28;20034;-73
2022/10/02 13:08:17;;;;;;;19.58;4.68;;;;;;;;;;5021137;28;20352;-74
2022/10/02 13:10:44;;;;;;;22.08;4.30;;;;;;;;;;5019259;28;20065;-74
2022/10/02 13:13:18;;;;;;;20.98;3.83;;;;;;;;;;4995318;28;20021;-73
2022/10/02 13:15:44;;;;;;;;;;;;;;;;;;5014139;28;20036;-74
2022/10/02 13:18:24;;;;;;;21.30;4.68;;;;;;;;;;5014317;28;19909;-74
2022/10/02 13:20:53;;;;;;;24.20;4.47;;;;;;;;;;5013463;28;20026;-75
2022/10/02 13:23:29;;;;;;;27.30;4.30;;;;;;;;;;5012727;28;20552;-73
2022/10/02 13:26:22;;;;;;;20.17;3.72;;;;;;;;;;5013498;28;20021;-72
2022/10/02 13:28:51;;;;;;;21.02;4.10;;;;;;;;;;5011490;28;20045;-73
2022/10/02 13:31:34;;;;;;;18.08;3.63;;;;;;;;;;4995971;28;20030;-73
2022/10/02 13:34:06;;;;;;;19.63;3.70;;;;;;;;;;5011963;28;20454;-74
2022/10/02 13:36:45;;;;;;;16.55;3.55;;;;;;;;;;5012160;28;20048;-72
2022/10/02 13:39:14;;;;;;;15.55;3.35;;;;;;;;;;5013017;28;20070;-74
2022/10/02 13:41:59;;;;;;;26.98;4.45;;;;;;;;;;4994658;28;20022;-74
2022/10/02 13:44:37;;;;;;;17.70;3.55;;;;;;;;;;5013529;28;20053;-73
2022/10/02 13:47:22;;;;;;;18.10;3.33;;;;;;;;;;5012014;28;20022;-74
2022/10/02 13:49:50;;;;;;;;;;;;;;;;;;5012757;28;20084;-74
2022/10/02 13:52:16;;;;;;;18.23;3.42;;;;;;;;;;5013762;28;19906;-76
2022/10/02 13:54:56;;;;;;;20.30;3.83;;;;;;;;;;5015590;28;20052;-73
2022/10/02 13:57:34;;;;;;;21.02;3.75;;;;;;;;;;5020063;28;20045;-74
2022/10/02 14:00:09;;;;;;;16.08;3.33;;;;;;;;;;5022812;28;20022;-74
2022/10/02 14:02:50;;;;;;;21.60;4.10;;;;;;;;;;5021257;28;20018;-74
2022/10/02 14:05:28;;;;;;;19.77;4.78;;;;;;;;;;5021428;28;20098;-73
2022/10/02 14:08:01;;;;;;;20.45;3.97;;;;;;;;;;5023570;28;20041;-74
2022/10/02 14:10:45;;;;;;;23.08;4.15;;;;;;;;;;5025398;28;20041;-73
2022/10/02 14:13:11;;;;;;;;;;;;;;;;;;5023659;28;20049;-73
2022/10/02 14:15:56;;;;;;;17.83;3.97;;;;;;;;;;5041497;28;19935;-77
2022/10/02 14:18:22;;;;;;;21.65;3.50;;;;;;;;;;5031612;28;20050;-74
2022/10/02 14:21:02;;;;;;;22.52;4.65;;;;;;;;;;5015554;28;20105;-75
2022/10/02 14:23:37;;;;;;;18.45;4.15;;;;;;;;;;5019897;28;20034;-74
2022/10/02 14:26:03;;;;;;;22.08;4.13;;;;;;;;;;5018450;28;20030;-71
2022/10/02 14:28:39;;;;;;;18.08;3.70;;;;;;;;;;4997073;28;20079;-73
2022/10/02 14:31:17;;;;;;;25.50;4.07;;;;;;;;;;5014927;28;20021;-72
2022/10/02 14:33:56;;;;;;;23.73;4.45;;;;;;;;;;5014907;28;20054;-74
2022/10/02 14:36:22;;;;;;;19.65;4.03;;;;;;;;;;5014768;28;20021;-74
2022/10/02 14:38:53;;;;;;;14.13;3.67;;;;;;;;;;5014688;28;20076;-74
2022/10/02 14:41:25;;;;;;;19.38;4.10;;;;;;;;;;5014828;28;20026;-73
2022/10/02 14:44:10;;;;;;;16.77;3.70;;;;;;;;;;4997322;28;20022;-74
2022/10/02 14:46:39;;;;;;;19.40;3.78;;;;;;;;;;5017388;28;20022;-76
2022/10/02 14:49:10;;;;;;;18.92;4.10;;;;;;;;;;5013415;28;20026;-75
2022/10/02 14:51:42;;;;;;;17.00;3.95;;;;;;;;;;5013498;28;20030;-74
2022/10/02 14:54:22;;;;;;;25.80;4.90;;;;;;;;;;5013838;28;20029;-74
2022/10/02 14:56:52;;;;;;;15.02;4.07;;;;;;;;;;5013756;28;20021;-75
2022/10/02 14:59:30;;;;;;;19.08;3.83;;;;;;;;;;5013421;28;20018;-75
2022/10/02 15:02:12;;;;;;;20.17;4.07;;;;;;;;;;5013361;28;20022;-73
2022/10/02 15:04:38;;;;;;;17.50;3.28;;;;;;;;;;5013520;28;20029;-72
2022/10/02 15:07:07;;;;;;;20.88;4.20;;;;;;;;;;5013717;28;20022;-74
2022/10/02 15:09:42;;;;;;;20.08;3.67;;;;;;;;;;4995999;28;20034;-73
2022/10/02 15:12:12;;;;;;;27.85;4.82;;;;;;;;;;5012475;28;20022;-74
2022/10/02 15:14:58;;;;;;;17.52;4.10;;;;;;;;;;5013961;28;20388;-73
2022/10/02 15:17:56;;;;;;;22.10;4.80;;;;;;;;;;5014866;28;20053;-74
2022/10/02 15:20:21;;;;;;;20.42;3.80;;;;;;;;;;4989240;28;20052;-73
2022/10/02 15:23:00;;;;;;;25.88;4.85;;;;;;;;;;5013711;28;20029;-73
2022/10/02 15:25:39;;;;;;;25.67;4.75;;;;;;;;;;5014811;28;20052;-74
2022/10/02 15:28:04;;;;;;;26.40;4.65;;;;;;;;;;5014174;28;20052;-74
2022/10/02 15:30:34;;;;;;;25.92;4.97;;;;;;;;;;5015648;28;20471;-73